sensor_id;sensor_type;location;lat;lon;timestamp;P1;durP1;ratioP1;P2;durP2;ratioP2
74487;SDS011;63019;51.080;13.642;2023-01-26T00:00:43;56.58;;;18.17;;
74487;SDS011;63019;51.080;13.642;2023-01-26T00:01:44;48.88;;;16.15;;
74487;SDS011;63019;51.080;13.642;2023-01-26T00:02:46;58.53;;;17.88;;
74487;SDS011;63019;51.080;13.642;2023-01-26T00:03:48;52.63;;;16.27;;
74487;SDS011;63019;51.080;13.642;2023-01-26T00:04:51;58.80;;;17.73;;
74487;SDS011;63019;51.080;13.642;2023-01-26T00:05:53;50.40;;;16.60;;
74487;SDS011;63019;51.080;13.642;2023-01-26T00:06:54;51.13;;;15.45;;
74487;SDS011;63019;51.080;13.642;2023-01-26T00:07:56;59.25;;;15.85;;
74487;SDS011;63019;51.080;13.642;2023-01-26T00:08:58;50.53;;;17.55;;
74487;SDS011;63019;51.080;13.642;2023-01-26T00:10:00;54.05;;;17.02;;
74487;SDS011;63019;51.080;13.642;2023-01-26T00:11:03;51.10;;;16.98;;
74487;SDS011;63019;51.080;13.642;2023-01-26T00:12:06;44.88;;;15.15;;
74487;SDS011;63019;51.080;13.642;2023-01-26T00:13:09;49.40;;;16.17;;
74487;SDS011;63019;51.080;13.642;2023-01-26T00:14:11;56.15;;;16.98;;
74487;SDS011;63019;51.080;13.642;2023-01-26T00:15:13;55.90;;;17.48;;
74487;SDS011;63019;51.080;13.642;2023-01-26T00:16:15;52.40;;;17.07;;
74487;SDS011;63019;51.080;13.642;2023-01-26T00:17:17;58.05;;;18.70;;
74487;SDS011;63019;51.080;13.642;2023-01-26T00:18:26;63.55;;;18.75;;
74487;SDS011;63019;51.080;13.642;2023-01-26T00:19:28;65.43;;;18.48;;
74487;SDS011;63019;51.080;13.642;2023-01-26T00:20:30;50.50;;;16.08;;
74487;SDS011;63019;51.080;13.642;2023-01-26T00:21:32;58.22;;;17.50;;
74487;SDS011;63019;51.080;13.642;2023-01-26T00:22:33;48.78;;;16.08;;
74487;SDS011;63019;51.080;13.642;2023-01-26T00:23:35;56.15;;;17.05;;
74487;SDS011;63019;51.080;13.642;2023-01-26T00:24:37;57.67;;;16.33;;
74487;SDS011;63019;51.080;13.642;2023-01-26T00:25:39;52.70;;;16.90;;
74487;SDS011;63019;51.080;13.642;2023-01-26T00:26:40;50.27;;;15.90;;
74487;SDS011;63019;51.080;13.642;2023-01-26T00:27:42;49.25;;;17.05;;
74487;SDS011;63019;51.080;13.642;2023-01-26T00:28:44;53.47;;;17.23;;
74487;SDS011;63019;51.080;13.642;2023-01-26T00:29:46;55.38;;;16.90;;
74487;SDS011;63019;51.080;13.642;2023-01-26T00:30:48;50.67;;;15.63;;
74487;SDS011;63019;51.080;13.642;2023-01-26T00:31:50;50.42;;;17.23;;
74487;SDS011;63019;51.080;13.642;2023-01-26T00:32:52;49.75;;;16.38;;
74487;SDS011;63019;51.080;13.642;2023-01-26T00:33:54;55.50;;;16.35;;
74487;SDS011;63019;51.080;13.642;2023-01-26T00:34:56;51.28;;;16.95;;
74487;SDS011;63019;51.080;13.642;2023-01-26T00:35:58;55.47;;;15.77;;
74487;SDS011;63019;51.080;13.642;2023-01-26T00:37:01;52.30;;;17.27;;
74487;SDS011;63019;51.080;13.642;2023-01-26T00:38:03;50.45;;;16.75;;
74487;SDS011;63019;51.080;13.642;2023-01-26T00:39:05;49.83;;;16.70;;
74487;SDS011;63019;51.080;13.642;2023-01-26T00:40:07;57.08;;;16.98;;
74487;SDS011;63019;51.080;13.642;2023-01-26T00:41:11;46.25;;;15.93;;
74487;SDS011;63019;51.080;13.642;2023-01-26T00:42:31;50.28;;;14.98;;
74487;SDS011;63019;51.080;13.642;2023-01-26T00:43:33;50.78;;;16.02;;
74487;SDS011;63019;51.080;13.642;2023-01-26T00:44:36;51.50;;;16.05;;
74487;SDS011;63019;51.080;13.642;2023-01-26T00:45:38;50.88;;;15.13;;
74487;SDS011;63019;51.080;13.642;2023-01-26T00:46:40;53.05;;;16.95;;
74487;SDS011;63019;51.080;13.642;2023-01-26T00:47:42;48.83;;;17.30;;
74487;SDS011;63019;51.080;13.642;2023-01-26T00:48:45;46.92;;;16.00;;
74487;SDS011;63019;51.080;13.642;2023-01-26T00:49:46;59.42;;;16.75;;
74487;SDS011;63019;51.080;13.642;2023-01-26T00:50:51;53.17;;;16.67;;
74487;SDS011;63019;51.080;13.642;2023-01-26T00:51:53;51.25;;;16.55;;
74487;SDS011;63019;51.080;13.642;2023-01-26T00:52:55;51.75;;;16.67;;
74487;SDS011;63019;51.080;13.642;2023-01-26T00:53:57;47.20;;;15.98;;
74487;SDS011;63019;51.080;13.642;2023-01-26T00:54:59;53.08;;;15.48;;
74487;SDS011;63019;51.080;13.642;2023-01-26T00:56:01;56.42;;;15.90;;
74487;SDS011;63019;51.080;13.642;2023-01-26T00:57:02;52.50;;;16.35;;
74487;SDS011;63019;51.080;13.642;2023-01-26T00:58:06;51.90;;;16.33;;
74487;SDS011;63019;51.080;13.642;2023-01-26T00:59:08;51.15;;;16.58;;
74487;SDS011;63019;51.080;13.642;2023-01-26T01:00:10;54.42;;;17.67;;
74487;SDS011;63019;51.080;13.642;2023-01-26T01:01:16;56.75;;;17.08;;
74487;SDS011;63019;51.080;13.642;2023-01-26T01:02:18;52.05;;;15.40;;
74487;SDS011;63019;51.080;13.642;2023-01-26T01:03:20;45.90;;;15.32;;
74487;SDS011;63019;51.080;13.642;2023-01-26T01:04:22;53.20;;;15.95;;
74487;SDS011;63019;51.080;13.642;2023-01-26T01:05:25;48.33;;;15.00;;
74487;SDS011;63019;51.080;13.642;2023-01-26T01:06:29;52.17;;;14.48;;
74487;SDS011;63019;51.080;13.642;2023-01-26T01:07:30;49.92;;;14.90;;
74487;SDS011;63019;51.080;13.642;2023-01-26T01:08:32;52.63;;;15.73;;
74487;SDS011;63019;51.080;13.642;2023-01-26T01:09:34;47.33;;;14.68;;
74487;SDS011;63019;51.080;13.642;2023-01-26T01:10:36;54.80;;;15.15;;
74487;SDS011;63019;51.080;13.642;2023-01-26T01:11:38;50.70;;;15.18;;
74487;SDS011;63019;51.080;13.642;2023-01-26T01:12:39;50.65;;;15.20;;
74487;SDS011;63019;51.080;13.642;2023-01-26T01:13:41;54.08;;;16.08;;
74487;SDS011;63019;51.080;13.642;2023-01-26T01:14:43;52.60;;;14.75;;
74487;SDS011;63019;51.080;13.642;2023-01-26T01:15:45;53.40;;;15.98;;
74487;SDS011;63019;51.080;13.642;2023-01-26T01:16:47;54.90;;;16.15;;
74487;SDS011;63019;51.080;13.642;2023-01-26T01:17:49;54.40;;;17.08;;
74487;SDS011;63019;51.080;13.642;2023-01-26T01:18:51;55.50;;;15.70;;
74487;SDS011;63019;51.080;13.642;2023-01-26T01:19:56;59.63;;;16.73;;
74487;SDS011;63019;51.080;13.642;2023-01-26T01:20:58;54.10;;;15.55;;
74487;SDS011;63019;51.080;13.642;2023-01-26T01:22:00;56.35;;;15.13;;
74487;SDS011;63019;51.080;13.642;2023-01-26T01:23:01;56.80;;;16.70;;
74487;SDS011;63019;51.080;13.642;2023-01-26T01:24:03;57.80;;;15.82;;
74487;SDS011;63019;51.080;13.642;2023-01-26T01:25:05;55.05;;;16.38;;
74487;SDS011;63019;51.080;13.642;2023-01-26T01:26:08;59.45;;;16.33;;
74487;SDS011;63019;51.080;13.642;2023-01-26T01:27:10;60.97;;;16.52;;
74487;SDS011;63019;51.080;13.642;2023-01-26T01:28:12;48.40;;;15.50;;
74487;SDS011;63019;51.080;13.642;2023-01-26T01:29:14;63.43;;;17.03;;
74487;SDS011;63019;51.080;13.642;2023-01-26T01:30:16;60.72;;;17.10;;
74487;SDS011;63019;51.080;13.642;2023-01-26T01:31:17;59.85;;;16.27;;
74487;SDS011;63019;51.080;13.642;2023-01-26T01:32:19;53.83;;;16.08;;
74487;SDS011;63019;51.080;13.642;2023-01-26T01:33:22;59.70;;;16.77;;
74487;SDS011;63019;51.080;13.642;2023-01-26T01:34:24;62.13;;;16.38;;
74487;SDS011;63019;51.080;13.642;2023-01-26T01:35:26;58.63;;;16.17;;
74487;SDS011;63019;51.080;13.642;2023-01-26T01:36:28;57.25;;;16.52;;
74487;SDS011;63019;51.080;13.642;2023-01-26T01:37:33;50.65;;;15.90;;
74487;SDS011;63019;51.080;13.642;2023-01-26T01:38:36;51.72;;;14.95;;
74487;SDS011;63019;51.080;13.642;2023-01-26T01:39:38;47.23;;;15.13;;
74487;SDS011;63019;51.080;13.642;2023-01-26T01:40:43;54.17;;;14.35;;
74487;SDS011;63019;51.080;13.642;2023-01-26T01:41:45;53.47;;;15.60;;
74487;SDS011;63019;51.080;13.642;2023-01-26T01:42:47;50.10;;;15.43;;
74487;SDS011;63019;51.080;13.642;2023-01-26T01:43:49;63.47;;;16.25;;
74487;SDS011;63019;51.080;13.642;2023-01-26T01:46:39;56.13;;;14.25;;
74487;SDS011;63019;51.080;13.642;2023-01-26T01:48:02;52.47;;;15.45;;
74487;SDS011;63019;51.080;13.642;2023-01-26T01:50:35;53.13;;;14.73;;
74487;SDS011;63019;51.080;13.642;2023-01-26T01:51:42;53.60;;;15.23;;
74487;SDS011;63019;51.080;13.642;2023-01-26T01:52:49;59.58;;;15.25;;
74487;SDS011;63019;51.080;13.642;2023-01-26T01:53:52;59.88;;;15.95;;
74487;SDS011;63019;51.080;13.642;2023-01-26T01:55:07;54.13;;;15.00;;
74487;SDS011;63019;51.080;13.642;2023-01-26T01:56:12;60.75;;;15.05;;
74487;SDS011;63019;51.080;13.642;2023-01-26T01:57:23;55.35;;;15.25;;
74487;SDS011;63019;51.080;13.642;2023-01-26T01:58:30;51.33;;;14.30;;
74487;SDS011;63019;51.080;13.642;2023-01-26T01:59:35;62.33;;;15.85;;
74487;SDS011;63019;51.080;13.642;2023-01-26T02:00:37;52.65;;;15.30;;
74487;SDS011;63019;51.080;13.642;2023-01-26T02:01:39;61.72;;;16.15;;
74487;SDS011;63019;51.080;13.642;2023-01-26T02:02:42;58.50;;;15.63;;
74487;SDS011;63019;51.080;13.642;2023-01-26T02:03:46;55.90;;;15.32;;
74487;SDS011;63019;51.080;13.642;2023-01-26T02:04:51;60.47;;;15.48;;
74487;SDS011;63019;51.080;13.642;2023-01-26T02:05:55;64.75;;;17.27;;
74487;SDS011;63019;51.080;13.642;2023-01-26T02:07:03;63.92;;;15.00;;
74487;SDS011;63019;51.080;13.642;2023-01-26T02:08:05;62.13;;;15.50;;
74487;SDS011;63019;51.080;13.642;2023-01-26T02:09:09;69.82;;;17.80;;
74487;SDS011;63019;51.080;13.642;2023-01-26T02:10:35;59.20;;;16.85;;
74487;SDS011;63019;51.080;13.642;2023-01-26T02:11:40;56.03;;;16.20;;
74487;SDS011;63019;51.080;13.642;2023-01-26T02:13:06;60.30;;;16.05;;
74487;SDS011;63019;51.080;13.642;2023-01-26T02:14:08;61.33;;;16.00;;
74487;SDS011;63019;51.080;13.642;2023-01-26T02:15:14;55.58;;;15.32;;
74487;SDS011;63019;51.080;13.642;2023-01-26T02:16:16;61.03;;;16.23;;
74487;SDS011;63019;51.080;13.642;2023-01-26T02:17:19;56.58;;;15.75;;
74487;SDS011;63019;51.080;13.642;2023-01-26T02:18:21;67.80;;;16.90;;
74487;SDS011;63019;51.080;13.642;2023-01-26T02:19:25;74.45;;;16.48;;
74487;SDS011;63019;51.080;13.642;2023-01-26T02:20:44;66.18;;;15.63;;
74487;SDS011;63019;51.080;13.642;2023-01-26T02:21:50;63.05;;;16.15;;
74487;SDS011;63019;51.080;13.642;2023-01-26T02:23:00;69.75;;;16.33;;
74487;SDS011;63019;51.080;13.642;2023-01-26T02:25:11;71.70;;;16.43;;
74487;SDS011;63019;51.080;13.642;2023-01-26T02:26:28;62.13;;;15.07;;
74487;SDS011;63019;51.080;13.642;2023-01-26T02:27:33;65.30;;;16.58;;
74487;SDS011;63019;51.080;13.642;2023-01-26T02:28:34;66.55;;;18.60;;
74487;SDS011;63019;51.080;13.642;2023-01-26T02:29:37;67.70;;;18.00;;
74487;SDS011;63019;51.080;13.642;2023-01-26T02:30:39;73.43;;;17.48;;
74487;SDS011;63019;51.080;13.642;2023-01-26T02:31:41;57.33;;;15.60;;
74487;SDS011;63019;51.080;13.642;2023-01-26T02:32:43;62.70;;;16.20;;
74487;SDS011;63019;51.080;13.642;2023-01-26T02:33:45;56.15;;;15.82;;
74487;SDS011;63019;51.080;13.642;2023-01-26T02:34:46;63.55;;;15.43;;
74487;SDS011;63019;51.080;13.642;2023-01-26T02:35:55;61.97;;;17.50;;
74487;SDS011;63019;51.080;13.642;2023-01-26T02:36:57;60.55;;;16.00;;
74487;SDS011;63019;51.080;13.642;2023-01-26T02:37:59;64.82;;;16.90;;
74487;SDS011;63019;51.080;13.642;2023-01-26T02:39:19;61.25;;;15.38;;
74487;SDS011;63019;51.080;13.642;2023-01-26T02:40:39;55.35;;;14.68;;
74487;SDS011;63019;51.080;13.642;2023-01-26T02:42:04;52.60;;;15.02;;
74487;SDS011;63019;51.080;13.642;2023-01-26T02:43:25;53.55;;;13.80;;
74487;SDS011;63019;51.080;13.642;2023-01-26T02:44:28;54.58;;;14.00;;
74487;SDS011;63019;51.080;13.642;2023-01-26T02:45:30;55.25;;;14.63;;
74487;SDS011;63019;51.080;13.642;2023-01-26T02:46:34;61.90;;;15.20;;
74487;SDS011;63019;51.080;13.642;2023-01-26T02:47:36;60.93;;;16.50;;
74487;SDS011;63019;51.080;13.642;2023-01-26T02:48:40;62.03;;;15.57;;
74487;SDS011;63019;51.080;13.642;2023-01-26T02:50:00;55.67;;;14.63;;
74487;SDS011;63019;51.080;13.642;2023-01-26T02:51:02;63.78;;;15.32;;
74487;SDS011;63019;51.080;13.642;2023-01-26T02:52:05;60.70;;;14.85;;
74487;SDS011;63019;51.080;13.642;2023-01-26T02:53:07;69.38;;;15.35;;
74487;SDS011;63019;51.080;13.642;2023-01-26T02:54:09;64.50;;;15.57;;
74487;SDS011;63019;51.080;13.642;2023-01-26T02:55:30;60.35;;;14.77;;
74487;SDS011;63019;51.080;13.642;2023-01-26T02:56:32;74.97;;;15.93;;
74487;SDS011;63019;51.080;13.642;2023-01-26T02:57:40;75.07;;;16.85;;
74487;SDS011;63019;51.080;13.642;2023-01-26T02:58:42;65.03;;;16.00;;
74487;SDS011;63019;51.080;13.642;2023-01-26T02:59:44;66.88;;;16.45;;
74487;SDS011;63019;51.080;13.642;2023-01-26T03:00:45;58.55;;;15.20;;
74487;SDS011;63019;51.080;13.642;2023-01-26T03:01:50;70.15;;;15.60;;
74487;SDS011;63019;51.080;13.642;2023-01-26T03:02:56;65.72;;;16.92;;
74487;SDS011;63019;51.080;13.642;2023-01-26T03:03:59;60.90;;;15.68;;
74487;SDS011;63019;51.080;13.642;2023-01-26T03:05:01;71.25;;;16.55;;
74487;SDS011;63019;51.080;13.642;2023-01-26T03:06:04;69.80;;;16.38;;
74487;SDS011;63019;51.080;13.642;2023-01-26T03:07:06;76.07;;;17.02;;
74487;SDS011;63019;51.080;13.642;2023-01-26T03:08:08;70.82;;;16.65;;
74487;SDS011;63019;51.080;13.642;2023-01-26T03:09:10;63.80;;;15.33;;
74487;SDS011;63019;51.080;13.642;2023-01-26T03:10:12;67.03;;;15.55;;
74487;SDS011;63019;51.080;13.642;2023-01-26T03:11:16;65.28;;;14.35;;
74487;SDS011;63019;51.080;13.642;2023-01-26T03:12:18;62.70;;;15.30;;
74487;SDS011;63019;51.080;13.642;2023-01-26T03:13:19;67.75;;;15.18;;
74487;SDS011;63019;51.080;13.642;2023-01-26T03:14:21;62.85;;;15.45;;
74487;SDS011;63019;51.080;13.642;2023-01-26T03:15:23;62.70;;;15.30;;
74487;SDS011;63019;51.080;13.642;2023-01-26T03:16:43;72.10;;;15.65;;
74487;SDS011;63019;51.080;13.642;2023-01-26T03:17:45;59.20;;;13.85;;
74487;SDS011;63019;51.080;13.642;2023-01-26T03:18:47;64.25;;;15.65;;
74487;SDS011;63019;51.080;13.642;2023-01-26T03:20:05;66.90;;;15.30;;
74487;SDS011;63019;51.080;13.642;2023-01-26T03:21:26;67.90;;;15.38;;
74487;SDS011;63019;51.080;13.642;2023-01-26T03:22:46;58.92;;;15.52;;
74487;SDS011;63019;51.080;13.642;2023-01-26T03:24:10;69.50;;;15.10;;
74487;SDS011;63019;51.080;13.642;2023-01-26T03:25:32;74.18;;;15.35;;
74487;SDS011;63019;51.080;13.642;2023-01-26T03:26:53;56.33;;;13.55;;
74487;SDS011;63019;51.080;13.642;2023-01-26T03:28:13;67.88;;;15.73;;
74487;SDS011;63019;51.080;13.642;2023-01-26T03:29:15;74.45;;;15.77;;
74487;SDS011;63019;51.080;13.642;2023-01-26T03:30:17;58.17;;;14.80;;
74487;SDS011;63019;51.080;13.642;2023-01-26T03:31:19;69.72;;;15.45;;
74487;SDS011;63019;51.080;13.642;2023-01-26T03:32:21;74.53;;;16.33;;
74487;SDS011;63019;51.080;13.642;2023-01-26T03:33:23;66.57;;;15.00;;
74487;SDS011;63019;51.080;13.642;2023-01-26T03:34:25;69.22;;;15.13;;
74487;SDS011;63019;51.080;13.642;2023-01-26T03:35:27;69.53;;;15.80;;
74487;SDS011;63019;51.080;13.642;2023-01-26T03:36:29;70.03;;;14.95;;
74487;SDS011;63019;51.080;13.642;2023-01-26T03:37:31;66.25;;;16.08;;
74487;SDS011;63019;51.080;13.642;2023-01-26T03:38:37;74.78;;;15.73;;
74487;SDS011;63019;51.080;13.642;2023-01-26T03:39:38;69.03;;;15.68;;
74487;SDS011;63019;51.080;13.642;2023-01-26T03:40:59;71.40;;;16.13;;
74487;SDS011;63019;51.080;13.642;2023-01-26T03:42:19;70.97;;;15.93;;
74487;SDS011;63019;51.080;13.642;2023-01-26T03:43:39;67.20;;;14.30;;
74487;SDS011;63019;51.080;13.642;2023-01-26T03:45:00;65.75;;;15.43;;
74487;SDS011;63019;51.080;13.642;2023-01-26T03:46:20;65.90;;;14.43;;
74487;SDS011;63019;51.080;13.642;2023-01-26T03:47:41;58.35;;;14.30;;
74487;SDS011;63019;51.080;13.642;2023-01-26T03:49:01;68.93;;;14.88;;
74487;SDS011;63019;51.080;13.642;2023-01-26T03:50:22;74.05;;;14.35;;
74487;SDS011;63019;51.080;13.642;2023-01-26T03:51:42;75.57;;;15.55;;
74487;SDS011;63019;51.080;13.642;2023-01-26T03:53:11;72.25;;;14.60;;
74487;SDS011;63019;51.080;13.642;2023-01-26T03:54:38;83.57;;;15.20;;
74487;SDS011;63019;51.080;13.642;2023-01-26T03:55:59;101.57;;;17.10;;
74487;SDS011;63019;51.080;13.642;2023-01-26T03:57:22;87.43;;;15.53;;
74487;SDS011;63019;51.080;13.642;2023-01-26T03:58:24;107.20;;;15.88;;
74487;SDS011;63019;51.080;13.642;2023-01-26T03:59:30;87.70;;;16.05;;
74487;SDS011;63019;51.080;13.642;2023-01-26T04:00:41;88.55;;;16.08;;
74487;SDS011;63019;51.080;13.642;2023-01-26T04:01:44;75.28;;;15.07;;
74487;SDS011;63019;51.080;13.642;2023-01-26T04:03:05;77.95;;;16.15;;
74487;SDS011;63019;51.080;13.642;2023-01-26T04:04:25;77.35;;;14.90;;
74487;SDS011;63019;51.080;13.642;2023-01-26T04:05:45;71.00;;;13.65;;
74487;SDS011;63019;51.080;13.642;2023-01-26T04:07:17;77.72;;;15.15;;
74487;SDS011;63019;51.080;13.642;2023-01-26T04:08:37;78.05;;;14.82;;
74487;SDS011;63019;51.080;13.642;2023-01-26T04:09:38;68.87;;;14.27;;
74487;SDS011;63019;51.080;13.642;2023-01-26T04:10:40;69.80;;;15.07;;
74487;SDS011;63019;51.080;13.642;2023-01-26T04:11:42;71.53;;;15.40;;
74487;SDS011;63019;51.080;13.642;2023-01-26T04:12:44;80.72;;;15.25;;
74487;SDS011;63019;51.080;13.642;2023-01-26T04:14:04;69.40;;;14.77;;
74487;SDS011;63019;51.080;13.642;2023-01-26T04:15:25;76.03;;;15.30;;
74487;SDS011;63019;51.080;13.642;2023-01-26T04:16:45;77.18;;;15.10;;
74487;SDS011;63019;51.080;13.642;2023-01-26T04:18:06;69.50;;;13.27;;
74487;SDS011;63019;51.080;13.642;2023-01-26T04:19:27;80.55;;;14.77;;
74487;SDS011;63019;51.080;13.642;2023-01-26T04:20:47;82.90;;;15.23;;
74487;SDS011;63019;51.080;13.642;2023-01-26T04:22:08;70.87;;;14.67;;
74487;SDS011;63019;51.080;13.642;2023-01-26T04:23:16;83.25;;;14.57;;
74487;SDS011;63019;51.080;13.642;2023-01-26T04:24:19;79.20;;;15.00;;
74487;SDS011;63019;51.080;13.642;2023-01-26T04:25:22;83.70;;;15.93;;
74487;SDS011;63019;51.080;13.642;2023-01-26T04:26:25;71.35;;;15.23;;
74487;SDS011;63019;51.080;13.642;2023-01-26T04:27:36;74.32;;;15.00;;
74487;SDS011;63019;51.080;13.642;2023-01-26T04:28:38;77.10;;;16.38;;
74487;SDS011;63019;51.080;13.642;2023-01-26T04:29:39;77.65;;;16.10;;
74487;SDS011;63019;51.080;13.642;2023-01-26T04:30:41;74.95;;;15.63;;
74487;SDS011;63019;51.080;13.642;2023-01-26T04:31:43;71.18;;;15.27;;
74487;SDS011;63019;51.080;13.642;2023-01-26T04:32:45;78.93;;;16.00;;
74487;SDS011;63019;51.080;13.642;2023-01-26T04:33:47;79.47;;;16.08;;
74487;SDS011;63019;51.080;13.642;2023-01-26T04:34:49;75.60;;;15.90;;
74487;SDS011;63019;51.080;13.642;2023-01-26T04:35:50;75.00;;;16.15;;
74487;SDS011;63019;51.080;13.642;2023-01-26T04:36:52;77.72;;;16.05;;
74487;SDS011;63019;51.080;13.642;2023-01-26T04:37:54;82.70;;;16.52;;
74487;SDS011;63019;51.080;13.642;2023-01-26T04:38:56;77.53;;;14.77;;
74487;SDS011;63019;51.080;13.642;2023-01-26T04:39:58;83.38;;;14.73;;
74487;SDS011;63019;51.080;13.642;2023-01-26T04:41:00;82.28;;;16.17;;
74487;SDS011;63019;51.080;13.642;2023-01-26T04:42:02;71.47;;;15.98;;
74487;SDS011;63019;51.080;13.642;2023-01-26T04:43:04;73.83;;;15.00;;
74487;SDS011;63019;51.080;13.642;2023-01-26T04:44:06;72.18;;;16.13;;
74487;SDS011;63019;51.080;13.642;2023-01-26T04:45:09;86.03;;;15.73;;
74487;SDS011;63019;51.080;13.642;2023-01-26T04:46:11;74.68;;;16.00;;
74487;SDS011;63019;51.080;13.642;2023-01-26T04:47:13;77.50;;;15.23;;
74487;SDS011;63019;51.080;13.642;2023-01-26T04:48:15;71.00;;;15.75;;
74487;SDS011;63019;51.080;13.642;2023-01-26T04:49:16;76.70;;;16.63;;
74487;SDS011;63019;51.080;13.642;2023-01-26T04:50:18;80.50;;;15.80;;
74487;SDS011;63019;51.080;13.642;2023-01-26T04:51:20;74.28;;;16.02;;
74487;SDS011;63019;51.080;13.642;2023-01-26T04:52:22;66.85;;;14.93;;
74487;SDS011;63019;51.080;13.642;2023-01-26T04:53:24;72.87;;;15.77;;
74487;SDS011;63019;51.080;13.642;2023-01-26T04:54:27;76.88;;;15.02;;
74487;SDS011;63019;51.080;13.642;2023-01-26T04:55:29;68.95;;;15.95;;
74487;SDS011;63019;51.080;13.642;2023-01-26T04:56:32;66.53;;;15.10;;
74487;SDS011;63019;51.080;13.642;2023-01-26T04:57:35;80.50;;;15.25;;
74487;SDS011;63019;51.080;13.642;2023-01-26T04:58:36;77.50;;;15.88;;
74487;SDS011;63019;51.080;13.642;2023-01-26T04:59:38;72.03;;;15.00;;
74487;SDS011;63019;51.080;13.642;2023-01-26T05:00:40;73.40;;;16.10;;
74487;SDS011;63019;51.080;13.642;2023-01-26T05:01:42;77.55;;;15.82;;
74487;SDS011;63019;51.080;13.642;2023-01-26T05:02:44;72.43;;;15.55;;
74487;SDS011;63019;51.080;13.642;2023-01-26T05:03:46;72.80;;;16.30;;
74487;SDS011;63019;51.080;13.642;2023-01-26T05:04:48;74.25;;;16.27;;
74487;SDS011;63019;51.080;13.642;2023-01-26T05:05:50;87.45;;;16.25;;
74487;SDS011;63019;51.080;13.642;2023-01-26T05:06:54;79.50;;;16.67;;
74487;SDS011;63019;51.080;13.642;2023-01-26T05:07:56;71.25;;;16.52;;
74487;SDS011;63019;51.080;13.642;2023-01-26T05:08:57;70.22;;;15.32;;
74487;SDS011;63019;51.080;13.642;2023-01-26T05:09:59;68.75;;;15.70;;
74487;SDS011;63019;51.080;13.642;2023-01-26T05:11:01;75.53;;;15.48;;
74487;SDS011;63019;51.080;13.642;2023-01-26T05:12:03;74.57;;;16.48;;
74487;SDS011;63019;51.080;13.642;2023-01-26T05:13:23;78.85;;;16.20;;
74487;SDS011;63019;51.080;13.642;2023-01-26T05:14:25;70.27;;;16.17;;
74487;SDS011;63019;51.080;13.642;2023-01-26T05:15:27;83.45;;;16.00;;
74487;SDS011;63019;51.080;13.642;2023-01-26T05:16:29;64.43;;;15.05;;
74487;SDS011;63019;51.080;13.642;2023-01-26T05:17:31;72.78;;;15.77;;
74487;SDS011;63019;51.080;13.642;2023-01-26T05:18:32;67.15;;;14.82;;
74487;SDS011;63019;51.080;13.642;2023-01-26T05:19:34;78.40;;;15.38;;
74487;SDS011;63019;51.080;13.642;2023-01-26T05:20:36;72.90;;;15.07;;
74487;SDS011;63019;51.080;13.642;2023-01-26T05:21:38;69.32;;;15.23;;
74487;SDS011;63019;51.080;13.642;2023-01-26T05:22:40;71.32;;;15.27;;
74487;SDS011;63019;51.080;13.642;2023-01-26T05:23:42;79.90;;;16.00;;
74487;SDS011;63019;51.080;13.642;2023-01-26T05:24:43;80.70;;;16.73;;
74487;SDS011;63019;51.080;13.642;2023-01-26T05:25:45;78.68;;;16.48;;
74487;SDS011;63019;51.080;13.642;2023-01-26T05:26:47;70.15;;;15.55;;
74487;SDS011;63019;51.080;13.642;2023-01-26T05:28:09;72.45;;;16.17;;
74487;SDS011;63019;51.080;13.642;2023-01-26T05:29:11;82.47;;;16.80;;
74487;SDS011;63019;51.080;13.642;2023-01-26T05:30:13;80.40;;;15.88;;
74487;SDS011;63019;51.080;13.642;2023-01-26T05:31:15;75.72;;;15.85;;
74487;SDS011;63019;51.080;13.642;2023-01-26T05:32:17;70.30;;;16.08;;
74487;SDS011;63019;51.080;13.642;2023-01-26T05:33:19;81.28;;;18.60;;
74487;SDS011;63019;51.080;13.642;2023-01-26T05:34:22;79.57;;;16.75;;
74487;SDS011;63019;51.080;13.642;2023-01-26T05:35:24;70.63;;;16.27;;
74487;SDS011;63019;51.080;13.642;2023-01-26T05:36:25;75.22;;;17.27;;
74487;SDS011;63019;51.080;13.642;2023-01-26T05:37:27;73.95;;;16.45;;
74487;SDS011;63019;51.080;13.642;2023-01-26T05:38:29;82.97;;;16.20;;
74487;SDS011;63019;51.080;13.642;2023-01-26T05:39:31;87.93;;;16.77;;
74487;SDS011;63019;51.080;13.642;2023-01-26T05:40:33;84.65;;;15.77;;
74487;SDS011;63019;51.080;13.642;2023-01-26T05:41:35;87.53;;;16.77;;
74487;SDS011;63019;51.080;13.642;2023-01-26T05:42:37;83.15;;;16.30;;
74487;SDS011;63019;51.080;13.642;2023-01-26T05:43:39;86.72;;;17.77;;
74487;SDS011;63019;51.080;13.642;2023-01-26T05:44:40;79.60;;;17.67;;
74487;SDS011;63019;51.080;13.642;2023-01-26T05:45:42;77.40;;;16.83;;
74487;SDS011;63019;51.080;13.642;2023-01-26T05:46:44;76.40;;;17.35;;
74487;SDS011;63019;51.080;13.642;2023-01-26T05:47:46;83.57;;;19.55;;
74487;SDS011;63019;51.080;13.642;2023-01-26T05:48:48;69.60;;;16.77;;
74487;SDS011;63019;51.080;13.642;2023-01-26T05:49:50;77.18;;;17.38;;
74487;SDS011;63019;51.080;13.642;2023-01-26T05:50:54;66.88;;;17.40;;
74487;SDS011;63019;51.080;13.642;2023-01-26T05:51:57;68.55;;;16.38;;
74487;SDS011;63019;51.080;13.642;2023-01-26T05:52:59;72.63;;;17.13;;
74487;SDS011;63019;51.080;13.642;2023-01-26T05:54:03;68.63;;;17.02;;
74487;SDS011;63019;51.080;13.642;2023-01-26T05:55:05;63.03;;;16.35;;
74487;SDS011;63019;51.080;13.642;2023-01-26T05:56:07;62.87;;;16.63;;
74487;SDS011;63019;51.080;13.642;2023-01-26T05:57:09;65.60;;;16.90;;
74487;SDS011;63019;51.080;13.642;2023-01-26T05:58:12;58.55;;;16.15;;
74487;SDS011;63019;51.080;13.642;2023-01-26T05:59:14;65.07;;;16.33;;
74487;SDS011;63019;51.080;13.642;2023-01-26T06:00:16;64.40;;;16.48;;
74487;SDS011;63019;51.080;13.642;2023-01-26T06:01:18;52.95;;;15.60;;
74487;SDS011;63019;51.080;13.642;2023-01-26T06:02:20;53.40;;;15.32;;
74487;SDS011;63019;51.080;13.642;2023-01-26T06:03:22;54.13;;;15.75;;
74487;SDS011;63019;51.080;13.642;2023-01-26T06:04:24;56.10;;;15.70;;
74487;SDS011;63019;51.080;13.642;2023-01-26T06:05:26;56.95;;;16.83;;
74487;SDS011;63019;51.080;13.642;2023-01-26T06:06:28;55.77;;;16.77;;
74487;SDS011;63019;51.080;13.642;2023-01-26T06:07:30;58.20;;;17.05;;
74487;SDS011;63019;51.080;13.642;2023-01-26T06:08:32;53.75;;;15.55;;
74487;SDS011;63019;51.080;13.642;2023-01-26T06:09:34;56.00;;;16.92;;
74487;SDS011;63019;51.080;13.642;2023-01-26T06:10:35;61.22;;;16.23;;
74487;SDS011;63019;51.080;13.642;2023-01-26T06:11:37;52.25;;;16.23;;
74487;SDS011;63019;51.080;13.642;2023-01-26T06:12:39;53.22;;;15.95;;
74487;SDS011;63019;51.080;13.642;2023-01-26T06:13:43;45.25;;;15.70;;
74487;SDS011;63019;51.080;13.642;2023-01-26T06:14:44;53.30;;;15.98;;
74487;SDS011;63019;51.080;13.642;2023-01-26T06:15:47;48.35;;;16.48;;
74487;SDS011;63019;51.080;13.642;2023-01-26T06:16:49;54.13;;;15.60;;
74487;SDS011;63019;51.080;13.642;2023-01-26T06:17:52;51.30;;;14.50;;
74487;SDS011;63019;51.080;13.642;2023-01-26T06:18:54;47.70;;;15.40;;
74487;SDS011;63019;51.080;13.642;2023-01-26T06:19:56;47.15;;;15.55;;